Time;durP1;ratioP1;P1;durP2;ratioP2;P2;SDS_P1;SDS_P2;PMS_P1;PMS_P2;Temp;Humidity;BMP_temperature;BMP_pressure;BME280_temperature;BME280_humidity;BME280_pressure;Samples;Min_cycle;Max_cycle;Signal;HPM_P1;HPM_P2
2023/09/16 00:01:59;;;;;;;13.75;10.50;;;17.30;99.90;;;;;;4949629;29;20114;-80
2023/09/16 00:04:24;;;;;;;13.98;11.23;;;17.30;99.90;;;;;;4949832;29;20031;-78
2023/09/16 00:06:50;;;;;;;15.20;11.68;;;17.30;99.90;;;;;;4967103;29;20322;-80
2023/09/16 00:09:16;;;;;;;15.38;10.45;;;17.30;99.90;;;;;;4966968;29;20042;-79
2023/09/16 00:11:42;;;;;;;14.40;11.27;;;17.30;99.90;;;;;;4934122;29;20035;-82
2023/09/16 00:14:08;;;;;;;14.85;10.98;;;17.20;99.90;;;;;;4949390;29;20066;-80
2023/09/16 00:16:34;;;;;;;12.32;9.63;;;17.30;99.90;;;;;;4933997;29;20217;-79
2023/09/16 00:18:59;;;;;;;13.70;10.80;;;17.20;99.90;;;;;;4967017;29;20031;-83
2023/09/16 00:21:28;;;;;;;16.65;10.32;;;17.20;99.90;;;;;;4950544;29;20026;-81
2023/09/16 00:23:54;;;;;;;14.05;10.75;;;17.20;99.90;;;;;;4967293;29;20046;-79
2023/09/16 00:26:19;;;;;;;13.93;10.05;;;17.10;99.90;;;;;;4966373;29;20051;-80
2023/09/16 00:28:47;;;;;;;13.03;10.00;;;17.10;99.90;;;;;;4934065;29;20061;-80
2023/09/16 07:19:28;;;;;;;15.35;10.68;;;18.90;99.90;;;;;;4995228;23;19919;-78
2023/09/16 07:21:53;;;;;;;13.32;10.77;;;19.10;99.90;;;;;;4929579;29;20032;-79
2023/09/16 07:24:19;;;;;;;13.35;10.93;;;19.20;99.90;;;;;;4929219;29;20036;-77
2023/09/16 07:26:45;;;;;;;12.35;9.95;;;19.30;99.90;;;;;;4926728;29;20088;-80
2023/09/16 07:29:12;;;;;;;16.90;10.55;;;19.40;99.90;;;;;;4909456;29;20107;-78
2023/09/16 07:31:43;;;;;;;16.70;10.77;;;19.50;99.90;;;;;;4913212;29;20067;-78
2023/09/16 07:34:09;;;;;;;13.00;10.00;;;19.60;99.90;;;;;;4912724;29;20020;-79
2023/09/16 07:36:35;;;;;;;13.05;10.23;;;19.80;99.90;;;;;;4928868;29;20191;-79
2023/09/16 07:39:00;;;;;;;14.32;9.38;;;19.90;99.90;;;;;;4912569;29;20258;-80
2023/09/16 07:41:26;;;;;;;13.05;9.13;;;20.10;99.90;;;;;;4896574;29;20068;-79
2023/09/16 07:43:52;;;;;;;11.77;9.57;;;20.10;99.90;;;;;;4928972;29;20195;-78
2023/09/16 07:46:20;;;;;;;10.90;8.85;;;20.30;99.90;;;;;;4911705;29;20028;-78
2023/09/16 07:48:46;;;;;;;12.77;9.77;;;20.30;99.90;;;;;;4929042;29;20044;-77
2023/09/16 07:51:16;;;;;;;14.02;9.80;;;20.40;99.90;;;;;;4928997;29;20040;-79
2023/09/16 07:53:41;;;;;;;11.57;8.73;;;20.50;99.90;;;;;;4929133;29;20101;-79
2023/09/16 07:56:07;;;;;;;11.70;9.02;;;20.50;99.90;;;;;;4912456;29;20099;-78
2023/09/16 07:58:39;;;;;;;11.90;8.82;;;20.60;99.90;;;;;;4927831;29;20076;-81
2023/09/16 08:01:05;;;;;;;12.05;9.10;;;20.70;99.90;;;;;;4928783;29;20107;-82
2023/09/16 08:03:39;;;;;;;11.48;8.52;;;20.70;99.90;;;;;;4928638;29;20329;-80
2023/09/16 08:06:17;;;;;;;12.50;9.38;;;20.90;99.90;;;;;;4896419;29;20024;-80
2023/09/16 08:08:43;;;;;;;11.98;8.80;;;21.00;99.90;;;;;;4928599;29;20148;-81
2023/09/16 08:11:12;;;;;;;11.65;8.73;;;21.00;99.90;;;;;;4928920;29;20036;-80
2023/09/16 08:13:40;;;;;;;10.00;7.63;;;21.10;99.90;;;;;;4927494;29;20032;-80
2023/09/16 08:16:09;;;;;;;11.13;8.02;;;21.10;99.90;;;;;;4928651;29;20024;-80
2023/09/16 08:22:22;;;;;;;9.40;6.95;;;21.40;99.90;;;;;;4948382;29;19918;-82
2023/09/16 08:25:00;;;;;;;8.57;6.72;;;21.60;99.90;;;;;;4948222;29;20042;-83
2023/09/16 08:27:28;;;;;;;10.68;7.38;;;21.70;99.90;;;;;;4909754;29;20198;-80
2023/09/16 08:29:57;;;;;;;9.43;6.85;;;21.70;99.90;;;;;;4909784;29;20044;-78
2023/09/16 08:32:58;;;;;;;8.32;6.82;;;22.00;99.90;;;;;;4909397;29;20036;-78
2023/09/16 08:35:31;;;;;;;8.45;5.85;;;22.00;99.90;;;;;;4917199;29;20322;-79
2023/09/16 08:38:00;;;;;;;8.48;6.80;;;22.10;99.60;;;;;;4896192;29;20156;-80
2023/09/16 08:40:32;;;;;;;7.95;5.55;;;22.30;99.20;;;;;;4910847;29;20209;-82
2023/09/16 08:43:41;;;;;;;7.43;5.97;;;22.40;98.90;;;;;;4928256;29;20031;-80
2023/09/16 08:46:23;;;;;;;7.60;6.25;;;22.60;98.40;;;;;;4899893;29;20040;-80
2023/09/16 08:48:54;;;;;;;7.00;5.70;;;22.70;98.00;;;;;;4896058;29;20032;-80
2023/09/16 08:51:21;;;;;;;7.07;5.53;;;22.70;97.60;;;;;;4895562;29;20024;-80
2023/09/16 08:54:06;;;;;;;8.82;6.15;;;22.70;97.60;;;;;;4927976;29;20028;-79
2023/09/16 08:56:33;;;;;;;7.18;5.68;;;22.70;97.50;;;;;;4911049;29;20035;-80
2023/09/16 08:58:59;;;;;;;7.03;5.68;;;22.80;97.30;;;;;;4928362;29;20048;-79
2023/09/16 09:01:25;;;;;;;7.15;5.75;;;22.80;97.00;;;;;;4896219;29;20233;-79
2023/09/16 09:03:53;;;;;;;7.32;6.05;;;23.00;96.80;;;;;;4912064;29;20079;-80
2023/09/16 09:06:24;;;;;;;7.05;5.43;;;23.10;96.30;;;;;;4928186;29;20111;-80
2023/09/16 09:08:52;;;;;;;8.52;5.53;;;23.20;96.00;;;;;;4910795;29;20024;-81
2023/09/16 09:11:19;;;;;;;6.40;5.00;;;23.30;96.10;;;;;;4895207;29;20087;-80
2023/09/16 09:13:49;;;;;;;6.03;5.15;;;23.50;95.70;;;;;;4915706;29;20016;-78
2023/09/16 09:16:17;;;;;;;5.70;4.97;;;23.60;95.30;;;;;;4891855;29;20028;-78
2023/09/16 09:18:46;;;;;;;7.13;5.13;;;23.80;95.10;;;;;;4886019;29;20330;-80
2023/09/16 09:21:12;;;;;;;6.70;5.20;;;24.10;94.70;;;;;;4910362;29;20263;-79
2023/09/16 09:23:41;;;;;;;5.65;4.85;;;24.10;94.10;;;;;;4927074;29;20028;-79
2023/09/16 09:26:06;;;;;;;5.85;4.75;;;24.10;93.70;;;;;;4918896;29;20042;-79
2023/09/16 09:28:38;;;;;;;5.20;4.35;;;24.20;93.50;;;;;;4913468;29;20015;-79
2023/09/16 09:31:06;;;;;;;5.78;4.25;;;24.30;93.20;;;;;;4946069;29;20016;-81
2023/09/16 09:33:40;;;;;;;5.65;4.45;;;24.40;92.50;;;;;;4945959;29;20020;-79
2023/09/16 09:36:34;;;;;;;6.20;4.80;;;24.60;92.30;;;;;;4946426;29;20190;-80
2023/09/16 09:39:00;;;;;;;6.45;5.07;;;24.60;92.20;;;;;;4946821;29;20031;-80
2023/09/16 09:41:25;;;;;;;6.03;4.93;;;24.60;92.00;;;;;;4929201;29;20413;-80
2023/09/16 09:43:56;;;;;;;7.05;4.90;;;24.50;92.20;;;;;;4913303;29;20032;-79
2023/09/16 09:46:22;;;;;;;6.50;4.88;;;24.50;92.00;;;;;;4928955;29;20019;-79
2023/09/16 09:48:48;;;;;;;7.80;5.22;;;24.50;91.90;;;;;;4913749;29;20047;-82
2023/09/16 09:51:20;;;;;;;6.25;4.65;;;24.60;92.00;;;;;;4929296;29;20071;-80
2023/09/16 09:53:47;;;;;;;6.63;5.25;;;24.60;91.80;;;;;;4929283;29;20066;-80
2023/09/16 09:56:19;;;;;;;7.78;5.10;;;24.60;92.20;;;;;;4929651;29;20027;-83
2023/09/16 09:58:45;;;;;;;13.48;5.55;;;24.70;92.20;;;;;;4946204;29;20046;-80
2023/09/16 10:01:11;;;;;;;6.45;5.18;;;24.80;92.00;;;;;;4929577;29;20016;-79
2023/09/16 10:03:37;;;;;;;8.48;5.25;;;24.90;91.80;;;;;;4928795;29;20208;-77
2023/09/16 10:06:14;;;;;;;7.50;5.00;;;24.90;91.60;;;;;;4945754;29;20039;-78
2023/09/16 10:08:42;;;;;;;6.85;4.85;;;25.00;91.80;;;;;;4945376;29;20024;-78
2023/09/16 10:11:10;;;;;;;6.22;5.20;;;25.00;91.80;;;;;;4946240;29;20091;-79
2023/09/16 10:13:39;;;;;;;7.75;5.65;;;25.20;91.50;;;;;;4925647;29;20027;-79
2023/09/16 10:16:05;;;;;;;;;;;25.20;91.70;;;;;;4911657;29;20266;-80
2023/09/16 10:18:32;;;;;;;10.85;5.60;;;25.20;90.90;;;;;;4945074;29;20104;-80
2023/09/16 10:20:58;;;;;;;5.80;5.15;;;25.20;91.00;;;;;;4928739;29;20039;-79
2023/09/16 10:23:25;;;;;;;5.90;4.72;;;25.30;91.10;;;;;;4912779;29;20032;-80
2023/09/16 10:25:51;;;;;;;8.00;5.10;;;25.40;90.50;;;;;;4913179;29;20051;-77
2023/09/16 10:28:17;;;;;;;6.70;5.10;;;25.50;90.70;;;;;;4945683;29;20400;-78
2023/09/16 10:30:43;;;;;;;7.72;4.97;;;25.80;90.50;;;;;;4945524;29;20042;-77
2023/09/16 10:33:11;;;;;;;6.95;4.63;;;25.80;90.10;;;;;;4945365;29;20043;-77
2023/09/16 10:35:41;;;;;;;6.50;4.18;;;25.90;89.60;;;;;;4928401;29;20020;-78
2023/09/16 10:38:08;;;;;;;4.90;3.78;;;26.00;88.10;;;;;;4912502;29;20091;-77
2023/09/16 10:40:35;;;;;;;5.35;4.10;;;26.20;86.30;;;;;;4945699;29;20036;-79
2023/09/16 10:43:02;;;;;;;5.15;3.42;;;26.30;86.10;;;;;;4945194;29;20019;-78
2023/09/16 10:45:31;;;;;;;5.90;4.40;;;26.50;84.70;;;;;;4912784;29;20038;-79
2023/09/16 10:47:59;;;;;;;5.03;3.83;;;26.60;83.70;;;;;;4929312;29;20332;-78
2023/09/16 10:50:38;;;;;;;6.10;4.78;;;26.80;82.90;;;;;;4929853;29;20046;-77
2023/09/16 10:53:21;;;;;;;4.85;3.80;;;26.90;81.90;;;;;;4913251;29;20158;-75
2023/09/16 10:55:50;;;;;;;6.07;3.50;;;27.10;81.30;;;;;;4946186;29;20039;-78
2023/09/16 10:58:47;;;;;;;5.30;3.53;;;27.40;80.50;;;;;;4930114;29;20035;-79
2023/09/16 11:01:39;;;;;;;4.63;3.80;;;27.70;80.10;;;;;;4930058;29;20323;-78
2023/09/16 11:04:22;;;;;;;5.82;3.63;;;28.30;77.60;;;;;;4952014;29;20024;-79
2023/09/16 11:06:50;;;;;;;4.28;2.72;;;28.90;76.60;;;;;;4942224;29;20054;-78
2023/09/16 11:09:21;;;;;;;8.75;3.92;;;29.40;74.70;;;;;;4935230;29;20024;-78
2023/09/16 11:11:53;;;;;;;2.97;2.33;;;30.10;72.10;;;;;;4943129;29;20036;-79
2023/09/16 11:14:23;;;;;;;2.83;1.85;;;31.00;68.60;;;;;;4944780;29;20035;-81
2023/09/16 11:16:51;;;;;;;2.03;1.60;;;31.80;65.50;;;;;;4945452;29;20352;-80
2023/09/16 11:19:21;;;;;;;2.55;1.85;;;32.80;62.90;;;;;;4926337;29;20072;-79
2023/09/16 11:21:47;;;;;;;4.60;2.00;;;33.60;61.50;;;;;;4925915;29;20056;-78
2023/09/16 11:24:13;;;;;;;2.40;1.65;;;34.20;60.20;;;;;;4937248;29;20031;-78
2023/09/16 11:26:45;;;;;;;3.90;2.42;;;34.70;59.40;;;;;;4912033;29;20028;-80
2023/09/16 11:29:16;;;;;;;4.10;1.80;;;35.20;58.40;;;;;;4927943;29;20031;-81
2023/09/16 11:31:42;;;;;;;2.50;1.42;;;35.90;57.00;;;;;;4927750;29;20040;-79
2023/09/16 11:34:10;;;;;;;2.42;1.50;;;35.90;55.30;;;;;;4928487;29;20020;-80
2023/09/16 11:36:36;;;;;;;2.00;1.30;;;36.30;55.10;;;;;;4944660;29;20136;-81
2023/09/16 11:39:27;;;;;;;1.92;1.30;;;36.90;54.30;;;;;;4927967;29;20037;-79
2023/09/16 11:41:53;;;;;;;1.95;1.40;;;37.70;53.70;;;;;;4912454;29;20074;-79
2023/09/16 11:44:23;;;;;;;1.85;1.40;;;38.20;53.00;;;;;;4927838;29;20027;-80
2023/09/16 11:47:00;;;;;;;1.70;1.40;;;38.20;52.50;;;;;;4942383;29;20205;-81
2023/09/16 11:49:25;;;;;;;1.90;1.40;;;38.20;51.90;;;;;;4944048;29;20036;-80
2023/09/16 11:52:28;;;;;;;3.47;1.50;;;38.60;51.50;;;;;;4930493;29;20082;-82
2023/09/16 11:54:57;;;;;;;2.33;1.23;;;38.70;51.30;;;;;;4947952;29;20082;-80
2023/09/16 11:57:23;;;;;;;1.63;1.17;;;39.20;50.20;;;;;;4928816;29;20337;-80
2023/09/16 11:59:50;;;;;;;1.50;1.00;;;38.70;50.70;;;;;;4947745;29;20028;-79
2023/09/16 12:02:27;;;;;;;2.58;1.38;;;39.30;50.30;;;;;;4930922;29;20242;-81
2023/09/16 12:04:53;;;;;;;1.95;1.20;;;39.50;50.00;;;;;;4948333;29;20050;-78
2023/09/16 12:07:24;;;;;;;1.55;1.23;;;39.40;50.30;;;;;;4931014;29;20028;-80
2023/09/16 12:09:51;;;;;;;1.70;1.10;;;39.10;49.40;;;;;;4927538;29;20024;-80
2023/09/16 12:12:17;;;;;;;2.13;1.20;;;38.70;50.00;;;;;;4912127;29;20031;-80
2023/09/16 12:14:42;;;;;;;2.10;1.23;;;39.50;49.50;;;;;;4914515;29;20023;-81
2023/09/16 12:17:09;;;;;;;2.65;1.55;;;40.30;49.00;;;;;;4947604;29;20112;-79
2023/09/16 12:19:35;;;;;;;3.00;1.10;;;40.70;48.60;;;;;;4930501;29;20287;-80
2023/09/16 12:22:25;;;;;;;2.15;1.20;;;41.20;47.70;;;;;;4930935;29;20047;-79
2023/09/16 12:24:57;;;;;;;1.67;1.13;;;41.50;47.30;;;;;;4915511;29;20067;-80
2023/09/16 12:27:25;;;;;;;2.33;1.20;;;41.60;47.40;;;;;;4947991;29;20034;-80
2023/09/16 12:29:56;;;;;;;;;;;41.70;46.50;;;;;;4917564;29;20035;-80
2023/09/16 12:32:50;;;;;;;1.42;1.10;;;41.90;46.90;;;;;;4915942;29;19906;-80
2023/09/16 12:35:16;;;;;;;1.83;1.05;;;42.40;46.10;;;;;;4948002;29;20317;-81
2023/09/16 12:37:42;;;;;;;1.80;1.30;;;42.00;45.70;;;;;;4930002;29;20035;-79
2023/09/16 12:40:08;;;;;;;1.67;1.10;;;42.30;46.60;;;;;;4947579;29;20034;-79
2023/09/16 12:43:44;;;;;;;1.40;0.90;;;43.00;45.40;;;;;;4914751;29;20030;-78
2023/09/16 12:46:12;;;;;;;2.50;0.95;;;43.50;45.00;;;;;;4930166;29;20217;-79
2023/09/16 12:48:44;;;;;;;2.42;1.42;;;44.20;45.00;;;;;;4946929;29;20218;-80
2023/09/16 12:51:20;;;;;;;2.55;1.10;;;44.50;44.80;;;;;;4914558;29;20058;-80
2023/09/16 12:53:57;;;;;;;1.58;1.00;;;44.30;44.30;;;;;;4929674;29;20034;-80
2023/09/16 12:56:23;;;;;;;1.52;1.05;;;44.80;44.00;;;;;;4931153;29;20043;-81
2023/09/16 12:58:49;;;;;;;1.60;0.93;;;44.70;43.70;;;;;;4914245;29;20071;-81
2023/09/16 13:01:26;;;;;;;1.48;1.10;;;43.10;44.40;;;;;;4930382;29;20024;-80
2023/09/16 13:04:07;;;;;;;2.33;1.20;;;42.10;45.50;;;;;;4930156;29;20194;-79
2023/09/16 13:06:32;;;;;;;2.10;1.13;;;41.90;46.00;;;;;;4929553;29;20032;-80
2023/09/16 13:09:04;;;;;;;1.80;1.05;;;42.80;45.50;;;;;;4946805;29;20027;-80
2023/09/16 13:11:38;;;;;;;1.70;1.02;;;44.10;44.50;;;;;;4929409;29;20042;-80
2023/09/16 13:14:04;;;;;;;2.30;0.80;;;44.70;44.30;;;;;;4946577;29;20238;-81
2023/09/16 13:16:35;;;;;;;1.45;0.60;;;45.40;42.70;;;;;;4946202;29;20095;-79
2023/09/16 13:19:24;;;;;;;1.70;1.00;;;43.90;43.40;;;;;;4929376;29;20202;-80
2023/09/16 13:21:50;;;;;;;1.48;0.88;;;43.60;44.80;;;;;;4946719;29;20095;-82
2023/09/16 13:24:16;;;;;;;1.63;0.90;;;43.90;43.80;;;;;;4946692;29;20053;-79
2023/09/16 13:26:54;;;;;;;1.38;0.90;;;44.00;43.40;;;;;;4924281;29;20039;-77
2023/09/16 13:29:32;;;;;;;2.47;0.90;;;44.90;43.60;;;;;;4946058;29;20103;-79
2023/09/16 13:32:03;;;;;;;2.95;1.10;;;45.80;42.40;;;;;;4946545;29;20043;-79
2023/09/16 13:34:59;;;;;;;3.13;1.00;;;46.80;41.80;;;;;;4946393;29;20039;-78
2023/09/16 13:37:25;;;;;;;1.65;0.98;;;47.00;41.70;;;;;;4894738;29;20041;-78
2023/09/16 13:39:51;;;;;;;1.33;0.70;;;47.80;40.90;;;;;;4913766;29;20036;-77
2023/09/16 13:42:16;;;;;;;1.33;0.80;;;47.40;40.60;;;;;;4946124;29;20031;-77
2023/09/16 13:44:46;;;;;;;2.20;1.00;;;46.10;41.30;;;;;;4928622;29;20023;-75
2023/09/16 13:47:12;;;;;;;1.98;1.23;;;44.30;42.30;;;;;;4913565;29;20028;-77
2023/09/16 13:49:41;;;;;;;1.70;1.02;;;42.40;43.80;;;;;;4928473;29;20043;-78
2023/09/16 13:52:06;;;;;;;1.95;1.10;;;41.10;45.00;;;;;;4929074;29;20019;-79
2023/09/16 13:54:35;;;;;;;3.55;1.40;;;40.00;46.10;;;;;;4945398;29;20031;-75
2023/09/16 13:57:03;;;;;;;4.35;1.38;;;38.90;46.90;;;;;;4928881;29;20137;-77
2023/09/16 13:59:32;;;;;;;3.63;1.27;;;38.60;48.40;;;;;;4912974;29;20020;-76
2023/09/16 14:01:58;;;;;;;2.85;1.45;;;38.40;48.00;;;;;;4913379;29;20249;-77
2023/09/16 14:04:27;;;;;;;1.98;1.20;;;38.60;47.70;;;;;;4913426;29;20028;-74
2023/09/16 14:06:52;;;;;;;2.78;1.20;;;38.30;47.90;;;;;;4945894;29;20050;-80
2023/09/16 14:09:21;;;;;;;2.10;1.10;;;37.80;48.30;;;;;;4928454;29;20229;-75
2023/09/16 14:11:53;;;;;;;1.88;1.17;;;37.90;48.60;;;;;;4924705;29;20040;-77
2023/09/16 14:14:18;;;;;;;2.10;1.40;;;38.30;47.70;;;;;;4942731;29;20217;-76
2023/09/16 14:16:44;;;;;;;2.25;1.10;;;38.00;48.00;;;;;;4944961;29;20233;-76
2023/09/16 14:19:10;;;;;;;1.67;1.00;;;38.10;47.90;;;;;;4928179;29;20052;-76
2023/09/16 14:21:35;;;;;;;1.88;0.82;;;38.40;48.20;;;;;;4945087;29;20055;-76
2023/09/16 14:24:03;;;;;;;1.55;0.95;;;38.90;46.90;;;;;;4945309;29;20349;-79
2023/09/16 14:26:38;;;;;;;2.20;1.20;;;39.50;46.30;;;;;;4945189;29;20027;-77
2023/09/16 14:29:04;;;;;;;2.30;0.90;;;40.70;45.30;;;;;;4928817;29;20090;-76
2023/09/16 14:31:30;;;;;;;1.40;1.00;;;40.80;44.90;;;;;;4944945;29;20036;-77
2023/09/16 14:33:57;;;;;;;3.03;1.08;;;40.50;45.20;;;;;;4945522;29;20062;-77
2023/09/16 14:36:29;;;;;;;1.52;0.90;;;39.70;45.70;;;;;;4927898;29;20036;-78
2023/09/16 14:38:55;;;;;;;1.80;0.90;;;39.20;46.20;;;;;;4945635;29;20075;-75
2023/09/16 14:41:22;;;;;;;1.77;1.13;;;38.50;46.70;;;;;;4945383;29;20036;-79
2023/09/16 14:43:47;;;;;;;2.25;1.40;;;37.90;47.40;;;;;;4945052;29;20032;-75
2023/09/16 14:46:13;;;;;;;2.80;1.30;;;37.30;48.30;;;;;;4945458;29;20031;-77
2023/09/16 14:48:39;;;;;;;1.73;1.17;;;36.50;48.90;;;;;;4928322;29;20265;-78
2023/09/16 14:51:05;;;;;;;1.80;1.20;;;36.00;49.30;;;;;;4946282;29;20102;-76
2023/09/16 14:53:31;;;;;;;1.90;1.10;;;35.50;50.00;;;;;;4943213;29;20028;-77
2023/09/16 14:55:56;;;;;;;1.83;1.23;;;35.20;50.60;;;;;;4909357;29;20247;-78
2023/09/16 14:58:22;;;;;;;2.88;1.20;;;34.90;50.70;;;;;;4926432;29;20036;-76
2023/09/16 15:00:48;;;;;;;3.00;1.20;;;34.70;50.80;;;;;;4909377;29;20103;-76
2023/09/16 15:03:14;;;;;;;2.70;1.30;;;34.70;51.30;;;;;;4894095;29;20016;-76
2023/09/16 15:05:41;;;;;;;2.60;1.20;;;34.80;51.30;;;;;;4893610;29;20024;-78
2023/09/16 15:08:07;;;;;;;2.30;1.20;;;35.00;51.50;;;;;;4909276;29;20027;-80
2023/09/16 15:10:32;;;;;;;3.25;1.35;;;35.30;51.10;;;;;;4899850;29;20067;-75
2023/09/16 15:12:58;;;;;;;2.15;1.30;;;35.50;50.80;;;;;;4945127;29;20042;-77
2023/09/16 15:15:24;;;;;;;2.67;1.52;;;36.20;50.50;;;;;;4945264;29;20035;-77
2023/09/16 15:18:02;;;;;;;2.88;1.60;;;36.90;49.50;;;;;;4911855;29;20016;-77
2023/09/16 15:20:51;;;;;;;2.88;1.30;;;37.40;48.60;;;;;;4944830;29;20027;-76
2023/09/16 15:23:20;;;;;;;2.17;1.30;;;38.10;48.10;;;;;;4945844;29;20047;-77
2023/09/16 15:25:46;;;;;;;1.60;0.93;;;38.60;47.70;;;;;;4931363;29;20036;-78
2023/09/16 15:28:16;;;;;;;2.08;1.08;;;38.50;48.00;;;;;;4948778;29;20112;-79
2023/09/16 15:30:42;;;;;;;2.33;1.13;;;38.50;48.40;;;;;;4918364;29;20082;-76
2023/09/16 15:33:08;;;;;;;2.10;1.23;;;40.10;47.00;;;;;;4959383;29;20095;-78
2023/09/16 15:35:37;;;;;;;2.47;1.30;;;40.50;46.40;;;;;;4931489;29;20340;-77
2023/09/16 15:38:03;;;;;;;2.67;1.02;;;40.10;46.20;;;;;;4916333;29;20262;-76
2023/09/16 15:40:28;;;;;;;2.40;1.20;;;39.30;46.50;;;;;;4948062;29;20058;-79
2023/09/16 15:42:56;;;;;;;2.75;1.10;;;39.50;47.20;;;;;;4948389;29;20038;-79
2023/09/16 15:45:22;;;;;;;1.70;1.00;;;39.50;46.40;;;;;;4931849;29;20024;-77
2023/09/16 15:47:48;;;;;;;1.92;1.08;;;38.80;46.50;;;;;;4944540;29;20050;-79
2023/09/16 15:50:14;;;;;;;2.30;1.10;;;38.40;46.50;;;;;;4919632;29;20066;-77
2023/09/16 15:52:42;;;;;;;2.58;1.23;;;38.00;47.20;;;;;;4942063;29;20024;-76
2023/09/16 15:55:08;;;;;;;1.83;1.10;;;37.30;47.80;;;;;;4931301;29;20372;-79
2023/09/16 15:57:34;;;;;;;3.33;1.25;;;36.30;48.70;;;;;;4947629;29;20031;-77
2023/09/16 15:59:59;;;;;;;2.17;1.17;;;35.50;49.80;;;;;;4931818;29;20099;-77
2023/09/16 16:02:25;;;;;;;1.85;1.10;;;34.90;50.80;;;;;;4948243;29;20028;-77
2023/09/16 16:04:57;;;;;;;2.33;1.13;;;34.40;51.20;;;;;;4948610;29;20027;-80
2023/09/16 16:07:23;;;;;;;3.45;1.40;;;34.70;52.20;;;;;;4912919;29;20047;-81
2023/09/16 16:09:52;;;;;;;4.20;1.17;;;35.60;50.80;;;;;;4913131;29;20040;-78
2023/09/16 16:12:17;;;;;;;2.08;1.08;;;37.20;49.10;;;;;;4948343;29;20035;-77
2023/09/16 16:14:43;;;;;;;1.83;1.20;;;38.20;48.10;;;;;;4948219;29;20249;-77
2023/09/16 16:17:10;;;;;;;2.08;1.55;;;38.00;48.10;;;;;;4931700;29;20043;-78
2023/09/16 16:19:36;;;;;;;5.83;1.40;;;37.40;49.00;;;;;;4930597;29;20438;-79
2023/09/16 16:22:08;;;;;;;2.70;1.55;;;36.60;49.60;;;;;;4948157;29;20447;-78
2023/09/16 16:24:33;;;;;;;2.65;1.50;;;35.80;50.80;;;;;;4945776;29;20091;-76
2023/09/16 16:26:59;;;;;;;3.67;1.80;;;36.90;50.40;;;;;;4947760;29;20027;-77
2023/09/16 16:29:25;;;;;;;1.95;1.30;;;37.30;49.60;;;;;;4915253;29;20024;-75
2023/09/16 16:31:51;;;;;;;5.20;1.85;;;36.70;49.80;;;;;;4930693;29;20043;-78
2023/09/16 16:34:17;;;;;;;4.00;1.80;;;35.90;50.70;;;;;;4914994;29;20221;-79
2023/09/16 16:36:43;;;;;;;2.90;1.70;;;35.30;52.20;;;;;;4947229;29;20020;-80
2023/09/16 16:39:12;;;;;;;2.33;1.60;;;34.80;52.50;;;;;;4947729;29;20042;-80
2023/09/16 16:41:40;;;;;;;2.90;1.70;;;34.60;53.00;;;;;;4930613;29;20364;-78
2023/09/16 16:44:06;;;;;;;3.03;1.80;;;34.40;53.40;;;;;;4947749;29;20059;-78
2023/09/16 16:46:32;;;;;;;2.95;1.83;;;34.10;53.40;;;;;;4946872;29;20329;-79
2023/09/16 16:49:02;;;;;;;3.70;2.00;;;33.60;54.60;;;;;;4947416;29;20065;-79
2023/09/16 16:51:28;;;;;;;2.38;1.60;;;33.20;54.70;;;;;;4947411;29;20019;-84
2023/09/16 16:53:54;;;;;;;3.53;1.90;;;32.80;55.60;;;;;;4947354;29;20095;-81
2023/09/16 16:56:20;;;;;;;3.72;1.80;;;32.40;56.30;;;;;;4930153;29;20048;-79
2023/09/16 16:58:46;;;;;;;2.78;1.75;;;32.00;57.10;;;;;;4947083;29;20034;-80
2023/09/16 17:01:12;;;;;;;2.88;2.08;;;31.60;58.00;;;;;;4930522;29;20322;-76
2023/09/16 17:03:37;;;;;;;3.10;2.00;;;31.20;58.40;;;;;;4903494;29;20052;-79
2023/09/16 17:06:09;;;;;;;4.38;2.08;;;30.70;59.10;;;;;;4928101;29;20020;-76
2023/09/16 17:08:35;;;;;;;2.70;1.95;;;30.30;60.60;;;;;;4927592;29;20036;-78
2023/09/16 17:11:00;;;;;;;4.97;1.73;;;30.10;60.70;;;;;;4894520;29;20267;-78
2023/09/16 17:13:26;;;;;;;3.67;2.20;;;29.90;60.80;;;;;;4896135;29;20016;-80
2023/09/16 17:15:52;;;;;;;3.90;2.00;;;29.70;61.40;;;;;;4897248;29;20028;-78
2023/09/16 17:18:18;;;;;;;2.53;1.67;;;29.50;61.90;;;;;;4911369;29;20044;-78
2023/09/16 17:20:43;;;;;;;2.95;1.73;;;29.30;62.50;;;;;;4927733;29;20461;-78
2023/09/16 17:23:11;;;;;;;2.67;1.77;;;29.20;62.70;;;;;;4928270;29;20060;-77
2023/09/16 17:25:37;;;;;;;3.35;2.05;;;29.10;62.80;;;;;;4895330;29;20179;-76
2023/09/16 17:28:26;;;;;;;5.55;2.35;;;28.90;63.40;;;;;;4895643;29;20028;-78
2023/09/16 17:31:10;;;;;;;3.83;1.92;;;28.80;63.60;;;;;;4919129;29;20047;-80
2023/09/16 17:33:43;;;;;;;4.88;2.53;;;28.70;63.90;;;;;;4854357;29;20038;-77
2023/09/16 17:36:25;;;;;;;4.22;2.30;;;28.60;64.20;;;;;;4869811;29;20080;-78
2023/09/16 17:39:39;;;;;;;4.40;2.63;;;28.40;64.60;;;;;;4870402;29;20037;-81
2023/09/16 17:42:33;;;;;;;6.05;4.85;;;28.20;65.10;;;;;;4870171;29;20319;-79
2023/09/16 17:45:32;;;;;;;4.65;3.40;;;28.10;65.70;;;;;;4840599;29;20101;-78
2023/09/16 17:47:58;;;;;;;5.47;2.90;;;27.90;66.10;;;;;;4854682;29;20112;-79
2023/09/16 17:50:24;;;;;;;16.45;13.35;;;27.80;66.50;;;;;;4854062;29;20045;-77
2023/09/16 17:52:49;;;;;;;7.55;4.80;;;27.70;67.20;;;;;;4839026;29;20230;-79
2023/09/16 17:55:16;;;;;;;6.25;4.30;;;27.60;67.50;;;;;;4867248;29;20052;-78
2023/09/16 17:57:42;;;;;;;5.03;3.63;;;27.50;67.90;;;;;;4869380;29;20033;-78
2023/09/16 18:00:09;;;;;;;5.68;3.53;;;27.40;68.10;;;;;;4853795;29;20104;-80
2023/09/16 18:02:45;;;;;;;5.30;3.60;;;27.50;68.60;;;;;;4868944;29;20038;-77
2023/09/16 18:05:14;;;;;;;7.00;4.18;;;27.30;68.80;;;;;;4898217;29;20108;-77
2023/09/16 18:07:40;;;;;;;6.53;3.60;;;27.10;69.00;;;;;;4908003;29;20087;-79
2023/09/16 18:10:10;;;;;;;6.43;3.70;;;27.10;69.30;;;;;;4891421;29;20036;-78
2023/09/16 18:12:36;;;;;;;6.13;3.97;;;27.00;69.70;;;;;;4904712;29;20021;-79
2023/09/16 18:15:07;;;;;;;6.63;4.07;;;26.90;70.00;;;;;;4908376;29;20099;-78
2023/09/16 18:17:53;;;;;;;6.10;3.90;;;26.70;70.10;;;;;;4890525;29;20035;-76
2023/09/16 18:20:21;;;;;;;6.25;3.90;;;26.70;70.50;;;;;;4908345;29;20282;-76
2023/09/16 18:22:47;;;;;;;5.10;3.45;;;26.70;70.60;;;;;;4891028;29;20039;-77
2023/09/16 18:25:13;;;;;;;7.28;4.80;;;26.70;70.30;;;;;;4908002;29;20029;-76
2023/09/16 18:27:41;;;;;;;5.28;4.18;;;26.70;70.50;;;;;;4907605;29;20032;-77
2023/09/16 18:30:10;;;;;;;6.20;4.20;;;26.70;70.30;;;;;;4908086;29;20044;-76
2023/09/16 18:32:36;;;;;;;8.63;5.38;;;26.70;70.80;;;;;;4907493;29;20028;-78
2023/09/16 18:35:05;;;;;;;9.07;5.60;;;26.60;71.80;;;;;;4926904;29;20137;-76
2023/09/16 18:37:32;;;;;;;7.68;5.00;;;26.60;72.20;;;;;;4894843;29;20046;-78
2023/09/16 18:39:59;;;;;;;8.18;4.50;;;26.40;72.80;;;;;;4926698;29;20020;-79
2023/09/16 18:42:26;;;;;;;6.03;4.35;;;26.30;73.00;;;;;;4910114;29;20087;-76
2023/09/16 18:44:52;;;;;;;6.43;4.80;;;26.20;73.40;;;;;;4909959;29;20091;-77
2023/09/16 18:47:18;;;;;;;7.63;4.35;;;26.10;73.70;;;;;;4926794;29;20020;-79
2023/09/16 18:49:43;;;;;;;6.30;4.47;;;26.00;73.80;;;;;;4926524;29;20054;-77
2023/09/16 18:52:09;;;;;;;6.80;4.32;;;26.00;73.30;;;;;;4927067;29;20032;-80
2023/09/16 18:54:41;;;;;;;6.88;5.13;;;26.00;73.40;;;;;;4891351;29;20025;-77
2023/09/16 18:57:10;;;;;;;7.60;4.78;;;26.00;73.30;;;;;;4906985;29;20052;-78
2023/09/16 18:59:36;;;;;;;7.15;4.38;;;26.00;73.30;;;;;;4894350;29;20366;-78
2023/09/16 19:02:03;;;;;;;8.20;5.13;;;26.00;74.30;;;;;;4879974;29;20132;-80
2023/09/16 19:04:28;;;;;;;7.25;5.13;;;25.90;73.60;;;;;;4885327;29;20031;-79
2023/09/16 19:06:56;;;;;;;7.32;5.00;;;25.80;74.30;;;;;;4913576;29;20024;-77
2023/09/16 19:09:21;;;;;;;9.20;5.28;;;25.80;74.30;;;;;;4898767;29;20056;-76
2023/09/16 19:11:47;;;;;;;7.53;5.57;;;25.80;75.20;;;;;;4895427;29;20055;-77
2023/09/16 19:14:13;;;;;;;9.27;5.47;;;25.70;75.40;;;;;;4879999;29;20282;-76
2023/09/16 19:16:42;;;;;;;8.85;5.85;;;25.60;75.20;;;;;;4911001;29;20024;-78
2023/09/16 19:19:07;;;;;;;7.25;5.13;;;25.50;76.00;;;;;;4911541;29;20072;-78
2023/09/16 19:21:34;;;;;;;8.77;5.60;;;25.40;75.50;;;;;;4911260;29;20044;-78
2023/09/16 19:24:02;;;;;;;8.55;5.65;;;25.40;75.40;;;;;;4910095;29;20017;-77
2023/09/16 19:26:27;;;;;;;;;;;25.50;75.00;;;;;;4895329;29;20100;-79
2023/09/16 19:28:58;;;;;;;9.38;6.43;;;25.50;75.20;;;;;;4910545;29;19907;-77
2023/09/16 19:31:23;;;;;;;11.30;7.15;;;25.50;76.20;;;;;;4911217;29;20043;-78
2023/09/16 19:33:49;;;;;;;11.18;6.68;;;25.40;75.80;;;;;;4912052;29;20024;-77
2023/09/16 19:36:19;;;;;;;8.75;6.65;;;25.40;75.60;;;;;;4913328;29;20210;-79
2023/09/16 19:38:45;;;;;;;12.10;6.93;;;25.30;77.50;;;;;;4912925;29;20020;-78
2023/09/16 19:41:14;;;;;;;8.63;5.75;;;25.20;77.70;;;;;;4930382;29;20043;-78
2023/09/16 19:43:42;;;;;;;8.13;5.45;;;25.10;77.90;;;;;;4913319;29;20259;-75
2023/09/16 19:46:11;;;;;;;7.60;5.47;;;25.00;78.60;;;;;;4909258;29;20048;-79
2023/09/16 19:48:37;;;;;;;7.38;5.50;;;24.90;77.50;;;;;;4913953;29;20218;-76
2023/09/16 19:51:06;;;;;;;7.60;5.50;;;24.90;78.80;;;;;;4913282;29;20060;-77